createdAt,value
2023-02-28T00:01:36.148Z,3.10
2023-02-28T00:04:04.107Z,2.17
2023-02-28T00:06:33.546Z,4.05
2023-02-28T00:09:01.525Z,5.55
2023-02-28T00:11:29.745Z,4.88
2023-02-28T00:13:57.902Z,5.05
2023-02-28T00:16:25.851Z,3.30
2023-02-28T00:18:53.915Z,4.80
2023-02-28T00:21:23.132Z,4.70
2023-02-28T00:23:52.473Z,3.42
2023-02-28T00:26:21.925Z,5.75
2023-02-28T00:28:50.419Z,5.25
2023-02-28T00:31:18.261Z,5.55
2023-02-28T00:33:49.318Z,6.75
2023-02-28T00:36:17.267Z,4.47
2023-02-28T00:38:45.153Z,3.72
2023-02-28T00:41:14.392Z,4.72
2023-02-28T00:43:42.574Z,6.13
2023-02-28T00:46:11.049Z,4.20
2023-02-28T00:48:39.168Z,7.10
2023-02-28T00:51:07.457Z,4.85
2023-02-28T00:53:35.460Z,3.95
2023-02-28T00:56:03.700Z,4.72
2023-02-28T00:58:33.040Z,3.45
2023-02-28T01:01:00.992Z,3.58
2023-02-28T01:03:29.086Z,4.40
2023-02-28T01:05:57.270Z,4.38
2023-02-28T01:08:25.482Z,5.68
2023-02-28T01:10:56.278Z,7.20
2023-02-28T01:13:26.298Z,5.00
2023-02-28T01:16:00.139Z,5.57
2023-02-28T01:18:28.203Z,7.55
2023-02-28T01:20:56.493Z,5.18
2023-02-28T01:23:25.181Z,5.18
2023-02-28T01:25:53.811Z,5.38
2023-02-28T01:28:21.960Z,5.13
2023-02-28T01:30:50.856Z,9.20
2023-02-28T01:33:20.165Z,6.82
2023-02-28T01:35:48.264Z,4.25
2023-02-28T01:38:22.526Z,5.88
2023-02-28T01:40:51.427Z,9.63
2023-02-28T01:43:24.626Z,7.10
2023-02-28T01:45:54.183Z,8.13
2023-02-28T01:48:28.010Z,6.05
2023-02-28T01:51:04.035Z,7.43
2023-02-28T01:53:36.858Z,6.47
2023-02-28T01:56:08.355Z,7.07
2023-02-28T01:58:36.807Z,5.97
2023-02-28T02:01:05.244Z,6.07
2023-02-28T02:03:34.481Z,7.10
2023-02-28T02:06:02.566Z,8.30
2023-02-28T02:08:31.463Z,6.35
2023-02-28T02:11:01.907Z,7.00
2023-02-28T02:13:50.620Z,5.22
2023-02-28T02:16:36.490Z,6.22
2023-02-28T02:19:28.776Z,5.03
2023-02-28T02:22:27.230Z,6.88
2023-02-28T02:25:15.879Z,5.18
2023-02-28T02:28:06.335Z,8.68
2023-02-28T02:31:03.420Z,5.78
2023-02-28T02:33:56.807Z,6.53
2023-02-28T02:36:32.788Z,9.25
2023-02-28T02:39:08.063Z,5.53
2023-02-28T02:41:42.634Z,10.02
2023-02-28T02:44:17.257Z,8.45
2023-02-28T02:46:47.145Z,6.60
2023-02-28T02:49:20.810Z,9.32
2023-02-28T02:51:59.201Z,7.15
2023-02-28T02:54:33.253Z,9.07
2023-02-28T02:57:07.798Z,8.45
2023-02-28T02:59:42.098Z,5.47
2023-02-28T03:02:14.871Z,8.10
2023-02-28T03:04:46.165Z,8.05
2023-02-28T03:07:21.637Z,6.60
2023-02-28T03:09:56.640Z,5.85
2023-02-28T03:12:41.232Z,7.13
2023-02-28T03:15:24.913Z,11.20
2023-02-28T03:18:06.329Z,7.80
2023-02-28T03:20:43.002Z,8.15
2023-02-28T03:23:21.891Z,7.28
2023-02-28T03:25:58.260Z,8.32
2023-02-28T03:28:35.873Z,7.60
2023-02-28T03:31:11.164Z,8.75
2023-02-28T03:33:45.935Z,9.35
2023-02-28T03:36:22.060Z,6.20
2023-02-28T03:38:55.736Z,9.25
2023-02-28T03:41:28.224Z,8.18
2023-02-28T03:44:00.791Z,7.53
2023-02-28T03:49:10.464Z,7.45
2023-02-28T03:51:44.448Z,8.13
2023-02-28T03:54:18.333Z,7.50
2023-02-28T03:56:51.636Z,6.38
2023-02-28T03:59:27.306Z,8.00
2023-02-28T04:02:06.266Z,6.97
2023-02-28T04:04:41.146Z,7.55
2023-02-28T04:07:13.523Z,7.60
2023-02-28T04:12:19.610Z,7.75
2023-02-28T04:14:50.639Z,9.60
2023-02-28T04:17:21.724Z,7.15
2023-02-28T04:19:51.121Z,6.30
2023-02-28T04:22:22.359Z,7.20
2023-02-28T04:24:56.988Z,7.72
2023-02-28T04:27:26.379Z,6.10
2023-02-28T04:32:34.591Z,6.38
2023-02-28T04:35:10.798Z,8.18
2023-02-28T04:37:40.798Z,8.05
2023-02-28T04:40:16.217Z,8.82
2023-02-28T04:42:56.763Z,5.85
2023-02-28T04:45:31.194Z,5.90
2023-02-28T04:48:03.670Z,13.35
2023-02-28T04:50:34.844Z,8.48
2023-02-28T04:53:08.990Z,11.60
2023-02-28T04:55:41.922Z,9.90
2023-02-28T04:58:14.748Z,7.80
2023-02-28T05:00:45.975Z,8.98
2023-02-28T05:03:18.920Z,13.48
2023-02-28T05:05:57.746Z,7.40
2023-02-28T05:08:30.796Z,7.30
2023-02-28T05:11:07.124Z,8.93
2023-02-28T05:13:41.171Z,7.47
2023-02-28T05:16:25.032Z,7.03
2023-02-28T05:19:04.157Z,12.68
2023-02-28T05:21:38.396Z,9.73
2023-02-28T05:24:10.197Z,6.47
2023-02-28T05:26:44.979Z,12.48
2023-02-28T05:29:23.907Z,8.38
2023-02-28T05:31:54.589Z,13.82
2023-02-28T05:34:23.386Z,8.45
2023-02-28T05:36:58.065Z,8.10
2023-02-28T05:39:31.596Z,11.65
2023-02-28T05:42:01.650Z,10.80
2023-02-28T05:44:49.639Z,9.73
2023-02-28T05:47:24.020Z,8.00
2023-02-28T05:49:52.466Z,14.60
2023-02-28T05:52:27.230Z,7.93
2023-02-28T05:54:57.533Z,8.85
2023-02-28T05:57:27.705Z,8.80
2023-02-28T05:59:59.950Z,6.93
2023-02-28T06:02:28.106Z,7.63
2023-02-28T06:04:56.152Z,6.65
2023-02-28T06:07:24.231Z,7.80
2023-02-28T06:09:52.276Z,8.52
2023-02-28T06:12:21.549Z,9.13
2023-02-28T06:14:51.050Z,5.78
2023-02-28T06:17:19.109Z,9.50
2023-02-28T06:19:49.077Z,6.97
2023-02-28T06:22:17.257Z,6.97
2023-02-28T06:24:45.297Z,9.00
2023-02-28T06:27:13.370Z,11.13
2023-02-28T06:29:44.577Z,6.85
2023-02-28T06:32:14.170Z,5.35
2023-02-28T06:34:42.334Z,7.15
2023-02-28T06:37:10.295Z,11.63
2023-02-28T06:39:38.449Z,8.07
2023-02-28T06:42:06.715Z,6.85
2023-02-28T06:44:36.595Z,8.23
2023-02-28T06:47:06.258Z,8.57
2023-02-28T06:49:37.427Z,8.90
2023-02-28T06:52:05.676Z,9.13
2023-02-28T06:54:33.651Z,9.02
2023-02-28T06:57:01.586Z,8.95
2023-02-28T06:59:29.514Z,8.25
2023-02-28T07:01:57.622Z,9.18
2023-02-28T07:04:25.861Z,8.75
2023-02-28T07:06:57.781Z,10.40
2023-02-28T07:09:31.064Z,13.70
2023-02-28T07:11:59.126Z,7.13
2023-02-28T07:14:27.152Z,11.73
2023-02-28T07:16:55.125Z,8.73
2023-02-28T07:19:23.018Z,9.25
2023-02-28T07:21:51.075Z,9.43
2023-02-28T07:24:20.474Z,7.03
2023-02-28T07:26:48.452Z,7.93
2023-02-28T07:29:16.412Z,8.23
2023-02-28T07:31:47.594Z,12.15
2023-02-28T07:34:15.770Z,10.77
2023-02-28T07:36:43.700Z,7.18
2023-02-28T07:39:11.787Z,13.50
2023-02-28T07:41:44.527Z,14.20
2023-02-28T07:44:13.386Z,8.13
2023-02-28T07:46:41.673Z,11.05
2023-02-28T07:49:09.663Z,8.57
2023-02-28T07:51:37.754Z,9.40
2023-02-28T07:54:06.164Z,9.73
2023-02-28T07:56:34.108Z,10.60
2023-02-28T07:59:03.581Z,8.70
2023-02-28T08:01:31.938Z,8.90
2023-02-28T08:04:00.117Z,10.68
2023-02-28T08:06:28.165Z,9.52
2023-02-28T08:08:57.218Z,9.25
2023-02-28T08:11:26.459Z,8.63
2023-02-28T08:13:54.554Z,9.25
2023-02-28T08:16:24.103Z,9.25
2023-02-28T08:18:54.170Z,7.65
2023-02-28T08:21:24.503Z,8.48
2023-02-28T08:23:53.588Z,11.77
2023-02-28T08:26:22.333Z,13.75
2023-02-28T08:28:50.746Z,10.00
2023-02-28T08:31:19.386Z,10.20
2023-02-28T08:33:51.912Z,8.70
2023-02-28T08:38:51.068Z,10.35
2023-02-28T08:41:19.428Z,7.57
2023-02-28T08:43:47.403Z,9.70
2023-02-28T08:46:15.894Z,10.93
2023-02-28T08:48:44.719Z,11.95
2023-02-28T08:51:20.524Z,10.73
2023-02-28T08:53:50.531Z,7.82
2023-02-28T08:56:19.037Z,14.27
2023-02-28T08:58:47.936Z,9.70
2023-02-28T09:01:18.659Z,8.48
2023-02-28T09:03:47.436Z,15.80
2023-02-28T09:06:18.184Z,9.75
2023-02-28T09:08:46.638Z,10.23
2023-02-28T09:11:20.189Z,11.35
2023-02-28T09:13:49.899Z,12.65
2023-02-28T09:16:18.684Z,10.63
2023-02-28T09:18:49.274Z,14.85
2023-02-28T09:21:20.342Z,10.52
2023-02-28T09:23:51.134Z,11.23
2023-02-28T09:26:20.981Z,9.50
2023-02-28T09:28:51.779Z,8.73
2023-02-28T09:31:22.700Z,11.05
2023-02-28T09:33:51.484Z,8.73
2023-02-28T09:36:23.217Z,10.45
2023-02-28T09:38:59.500Z,8.80
2023-02-28T09:41:36.776Z,11.23
2023-02-28T09:44:10.786Z,9.30
2023-02-28T09:46:50.013Z,10.90
2023-02-28T09:49:27.811Z,11.00
2023-02-28T09:52:03.594Z,9.13
2023-02-28T09:54:36.866Z,10.68
2023-02-28T09:57:16.099Z,8.73
2023-02-28T10:00:06.501Z,8.32
2023-02-28T10:02:58.460Z,11.50
2023-02-28T10:05:44.481Z,12.40
2023-02-28T10:08:18.860Z,11.38
2023-02-28T10:10:53.739Z,15.52
2023-02-28T10:13:29.950Z,9.25
2023-02-28T10:16:05.678Z,9.20
2023-02-28T10:18:53.063Z,7.55
2023-02-28T10:21:27.133Z,8.75
2023-02-28T10:24:05.304Z,9.25
2023-02-28T10:26:36.481Z,9.23
2023-02-28T10:29:09.662Z,10.30
2023-02-28T10:32:03.791Z,9.75
2023-02-28T10:34:53.321Z,11.77
2023-02-28T10:37:56.839Z,11.15
2023-02-28T10:40:52.332Z,10.25
2023-02-28T10:43:28.522Z,11.15
2023-02-28T10:46:26.824Z,11.52
2023-02-28T10:49:43.725Z,11.10
2023-02-28T10:52:31.414Z,10.75
2023-02-28T10:55:41.769Z,9.85
2023-02-28T10:58:52.604Z,7.72
2023-02-28T11:02:08.952Z,10.63
2023-02-28T11:08:11.606Z,10.50
2023-02-28T11:10:51.764Z,10.17
2023-02-28T11:13:25.614Z,10.43
2023-02-28T11:16:28.450Z,9.02
2023-02-28T11:19:20.887Z,9.65
2023-02-28T11:22:06.016Z,14.43
2023-02-28T11:24:58.668Z,9.05
2023-02-28T11:27:48.112Z,10.05
2023-02-28T11:30:48.532Z,8.65
2023-02-28T11:33:49.310Z,9.18
2023-02-28T11:36:21.535Z,12.77
2023-02-28T11:38:54.245Z,11.32
2023-02-28T11:41:41.398Z,8.10
2023-02-28T11:44:35.240Z,9.18
2023-02-28T11:47:10.828Z,10.35
2023-02-28T11:49:49.683Z,9.15
2023-02-28T11:52:26.783Z,9.00
2023-02-28T11:55:11.294Z,9.40
2023-02-28T11:58:03.090Z,8.93
2023-02-28T12:00:48.103Z,7.32
2023-02-28T12:03:29.987Z,8.60
2023-02-28T12:06:09.119Z,7.38
2023-02-28T12:08:54.231Z,10.90
2023-02-28T12:11:36.302Z,7.22
2023-02-28T12:14:24.546Z,9.73
2023-02-28T12:17:08.010Z,9.40
2023-02-28T12:19:45.902Z,9.40
2023-02-28T12:22:31.004Z,13.25
2023-02-28T12:25:26.456Z,7.97
2023-02-28T12:27:57.182Z,7.10
2023-02-28T12:30:30.827Z,9.90
2023-02-28T12:33:05.264Z,9.98
2023-02-28T12:35:38.949Z,9.25
2023-02-28T12:38:18.203Z,9.23
2023-02-28T12:40:50.832Z,13.40
2023-02-28T12:43:20.977Z,10.50
2023-02-28T12:45:54.149Z,10.93
2023-02-28T12:48:27.688Z,9.68
2023-02-28T12:50:56.499Z,10.80
2023-02-28T12:53:32.716Z,11.73
2023-02-28T12:56:11.616Z,9.57
2023-02-28T12:58:43.161Z,9.93
2023-02-28T13:01:48.490Z,8.83
2023-02-28T13:04:49.331Z,9.20
2023-02-28T13:07:45.911Z,10.63
2023-02-28T13:10:17.007Z,11.45
2023-02-28T13:12:52.482Z,11.95
2023-02-28T13:15:25.595Z,11.20
2023-02-28T13:17:55.870Z,9.43
2023-02-28T13:20:27.587Z,10.98
2023-02-28T13:22:58.126Z,11.60
2023-02-28T13:25:58.731Z,16.35
2023-02-28T13:29:00.338Z,8.98
2023-02-28T13:31:29.216Z,11.13
2023-02-28T13:34:15.135Z,23.27
2023-02-28T13:36:43.123Z,9.88
2023-02-28T13:39:44.378Z,13.95
2023-02-28T13:42:39.762Z,13.05
2023-02-28T13:45:25.478Z,12.25
2023-02-28T13:48:00.296Z,11.15
2023-02-28T13:50:34.847Z,10.50
2023-02-28T13:53:40.117Z,10.80
2023-02-28T13:56:22.898Z,10.65
2023-02-28T14:01:58.568Z,9.43
2023-02-28T14:04:51.598Z,14.10
2023-02-28T14:07:23.287Z,12.57
2023-02-28T14:10:01.462Z,12.40
2023-02-28T14:13:09.251Z,12.38
2023-02-28T14:15:49.878Z,13.55
2023-02-28T14:18:27.035Z,13.70
2023-02-28T14:21:00.615Z,12.63
2023-02-28T14:23:59.550Z,13.82
2023-02-28T14:27:00.006Z,9.90
2023-02-28T14:29:58.409Z,11.18
2023-02-28T14:32:32.631Z,12.65
2023-02-28T14:35:15.169Z,11.27
2023-02-28T14:37:48.800Z,11.82
2023-02-28T14:40:32.529Z,13.77
2023-02-28T14:43:07.836Z,12.00
2023-02-28T14:45:38.554Z,12.00
2023-02-28T14:48:12.622Z,14.02
2023-02-28T14:50:43.471Z,10.63
2023-02-28T14:53:20.492Z,10.07
2023-02-28T14:55:50.663Z,13.55
2023-02-28T14:58:28.638Z,11.85
2023-02-28T15:01:00.262Z,12.07
2023-02-28T15:03:40.004Z,12.73
2023-02-28T15:09:10.254Z,10.43
2023-02-28T15:11:40.868Z,13.15
2023-02-28T15:14:09.843Z,12.18
2023-02-28T15:16:44.142Z,12.10
2023-02-28T15:19:21.729Z,14.60
2023-02-28T15:21:53.420Z,12.95
2023-02-28T15:24:37.024Z,14.68
2023-02-28T15:27:08.939Z,12.82
2023-02-28T15:29:46.975Z,13.57
2023-02-28T15:32:40.111Z,12.05
2023-02-28T15:35:30.895Z,13.50
2023-02-28T15:38:02.684Z,13.15
2023-02-28T15:40:42.800Z,13.65
2023-02-28T15:43:31.259Z,13.80
2023-02-28T15:46:02.445Z,12.10
2023-02-28T15:48:33.713Z,12.27
2023-02-28T15:51:10.505Z,13.35
2023-02-28T15:53:48.556Z,14.80
2023-02-28T15:56:25.900Z,14.77
2023-02-28T15:58:58.688Z,9.98
2023-02-28T16:01:33.261Z,11.70
2023-02-28T16:04:04.308Z,12.68
2023-02-28T16:06:45.951Z,14.35
2023-02-28T16:09:21.986Z,18.10
2023-02-28T16:11:53.436Z,10.23
2023-02-28T16:14:25.287Z,16.35
2023-02-28T16:16:55.284Z,10.95
2023-02-28T16:19:24.342Z,13.02
2023-02-28T16:21:54.536Z,12.02
2023-02-28T16:24:24.381Z,12.95
2023-02-28T16:26:58.914Z,12.88
2023-02-28T16:29:31.874Z,8.90
2023-02-28T16:32:00.816Z,13.35
2023-02-28T16:34:32.256Z,13.93
2023-02-28T16:37:14.816Z,11.93
2023-02-28T16:39:44.600Z,11.30
2023-02-28T16:42:18.563Z,11.82
2023-02-28T16:44:48.462Z,15.80
2023-02-28T16:47:17.246Z,11.02
2023-02-28T16:49:47.902Z,14.25
2023-02-28T16:52:18.305Z,12.73
2023-02-28T16:54:47.379Z,13.73
2023-02-28T16:57:23.259Z,11.20
2023-02-28T16:59:55.027Z,15.63
2023-02-28T17:02:26.681Z,12.13
2023-02-28T17:04:58.727Z,12.38
2023-02-28T17:07:41.844Z,11.63
2023-02-28T17:10:23.551Z,15.48
2023-02-28T17:13:03.264Z,16.05
2023-02-28T17:15:39.607Z,12.57
2023-02-28T17:18:09.979Z,15.70
2023-02-28T17:23:20.996Z,13.32
2023-02-28T17:25:57.938Z,13.30
2023-02-28T17:28:29.880Z,15.25
2023-02-28T17:30:58.890Z,10.95
2023-02-28T17:33:30.140Z,13.18
2023-02-28T17:35:58.706Z,13.65
2023-02-28T17:38:28.936Z,12.13
2023-02-28T17:41:01.461Z,17.08
2023-02-28T17:43:30.336Z,18.75
2023-02-28T17:46:06.325Z,15.77
2023-02-28T17:48:37.016Z,14.05
2023-02-28T17:51:07.812Z,13.55
2023-02-28T17:53:45.862Z,18.50
2023-02-28T17:56:16.906Z,19.80
2023-02-28T17:58:50.657Z,12.52
2023-02-28T18:01:23.973Z,12.05
2023-02-28T18:03:51.993Z,12.38
2023-02-28T18:06:23.864Z,13.13
2023-02-28T18:08:53.437Z,13.32
2023-02-28T18:11:21.938Z,11.73
2023-02-28T18:13:51.961Z,12.80
2023-02-28T18:16:21.933Z,15.48
2023-02-28T18:18:50.518Z,11.20
2023-02-28T18:21:20.377Z,12.65
2023-02-28T18:23:55.857Z,15.38
2023-02-28T18:26:25.518Z,14.73
2023-02-28T18:28:58.312Z,13.20
2023-02-28T18:31:26.387Z,11.40
2023-02-28T18:33:57.462Z,15.95
2023-02-28T18:36:25.937Z,12.05
2023-02-28T18:38:54.113Z,13.88
2023-02-28T18:41:24.255Z,13.63
2023-02-28T18:43:53.322Z,17.33
2023-02-28T18:46:22.275Z,14.88
2023-02-28T18:48:50.357Z,15.90
2023-02-28T18:51:21.256Z,12.68
2023-02-28T18:53:49.489Z,13.88
2023-02-28T18:56:19.612Z,13.60
2023-02-28T18:58:56.210Z,13.38
2023-02-28T19:01:40.564Z,12.75
2023-02-28T19:04:21.809Z,12.63
2023-02-28T19:06:53.353Z,12.55
2023-02-28T19:09:23.765Z,15.23
2023-02-28T19:12:01.514Z,17.48
2023-02-28T19:14:38.502Z,13.20
2023-02-28T19:17:10.097Z,16.92
2023-02-28T19:19:38.733Z,14.90
2023-02-28T19:22:07.952Z,13.40
2023-02-28T19:24:38.201Z,10.93
2023-02-28T19:27:11.064Z,15.50
2023-02-28T19:29:51.944Z,10.13
2023-02-28T19:32:28.746Z,16.23
2023-02-28T19:34:59.214Z,13.38
2023-02-28T19:37:33.960Z,12.23
2023-02-28T19:40:02.845Z,12.52
2023-02-28T19:42:33.542Z,17.90
2023-02-28T19:45:10.337Z,12.57
2023-02-28T19:47:42.143Z,13.93
2023-02-28T19:50:15.217Z,16.67
2023-02-28T19:52:50.742Z,12.80
2023-02-28T19:55:30.978Z,12.65
2023-02-28T19:58:22.002Z,14.95
2023-02-28T20:00:52.878Z,12.13
2023-02-28T20:03:21.828Z,14.68
2023-02-28T20:06:08.323Z,15.45
2023-02-28T20:08:50.102Z,11.93
2023-02-28T20:11:25.038Z,13.07
2023-02-28T20:13:57.267Z,14.50
2023-02-28T20:16:32.046Z,14.30
2023-02-28T20:19:15.152Z,15.23
2023-02-28T20:21:50.285Z,13.40
2023-02-28T20:24:21.366Z,16.15
2023-02-28T20:27:00.751Z,15.93
2023-02-28T20:29:41.977Z,13.98
2023-02-28T20:32:15.699Z,12.98
2023-02-28T20:34:45.344Z,17.77
2023-02-28T20:37:19.195Z,19.42
2023-02-28T20:39:48.858Z,13.50
2023-02-28T20:42:24.249Z,21.40
2023-02-28T20:44:58.329Z,15.27
2023-02-28T20:47:48.444Z,18.75
2023-02-28T20:50:28.898Z,15.48
2023-02-28T20:53:02.646Z,18.00
2023-02-28T20:55:36.010Z,11.55
2023-02-28T20:58:22.848Z,15.00
2023-02-28T21:01:19.451Z,15.95
2023-02-28T21:04:24.557Z,14.45
2023-02-28T21:06:54.338Z,17.48
2023-02-28T21:09:33.908Z,12.88
2023-02-28T21:12:14.308Z,15.85
2023-02-28T21:14:45.157Z,12.07
2023-02-28T21:17:16.201Z,14.57
2023-02-28T21:19:48.489Z,15.30
2023-02-28T21:22:21.958Z,14.95
2023-02-28T21:25:26.010Z,19.88
2023-02-28T21:27:59.222Z,14.70
2023-02-28T21:30:38.538Z,13.95
2023-02-28T21:33:07.256Z,13.15
2023-02-28T21:35:44.457Z,12.27
2023-02-28T21:38:15.406Z,14.95
2023-02-28T21:40:44.969Z,14.15
2023-02-28T21:43:30.889Z,16.63
2023-02-28T21:46:19.907Z,17.10
2023-02-28T21:49:09.671Z,15.30
2023-02-28T21:51:49.708Z,19.10
2023-02-28T21:54:21.316Z,13.27
2023-02-28T21:56:54.793Z,17.23
2023-02-28T21:59:26.021Z,17.15
2023-02-28T22:01:55.317Z,16.15
2023-02-28T22:04:41.661Z,13.90
2023-02-28T22:07:25.489Z,16.13
2023-02-28T22:09:54.055Z,12.70
2023-02-28T22:12:22.566Z,13.50
2023-02-28T22:14:55.469Z,17.05
2023-02-28T22:17:24.181Z,12.88
2023-02-28T22:19:54.384Z,13.80
2023-02-28T22:22:24.280Z,15.73
2023-02-28T22:25:13.903Z,14.00
2023-02-28T22:27:50.368Z,17.98
2023-02-28T22:30:29.037Z,17.25
2023-02-28T22:33:07.555Z,13.15
2023-02-28T22:35:36.682Z,14.32
2023-02-28T22:38:13.131Z,15.40
2023-02-28T22:40:47.173Z,17.85
2023-02-28T22:43:32.525Z,14.73
2023-02-28T22:46:05.005Z,15.77
2023-02-28T22:48:49.613Z,14.88
2023-02-28T22:51:23.515Z,13.18
2023-02-28T22:53:56.535Z,13.63
2023-02-28T22:56:41.069Z,15.30
2023-02-28T22:59:19.713Z,16.48
2023-02-28T23:01:50.569Z,20.58
2023-02-28T23:04:25.919Z,14.32
2023-02-28T23:06:54.561Z,17.17
2023-02-28T23:09:27.671Z,14.70
2023-02-28T23:12:02.655Z,15.27
2023-02-28T23:14:31.374Z,13.80
2023-02-28T23:17:08.738Z,18.50
2023-02-28T23:19:41.006Z,13.52
2023-02-28T23:22:12.047Z,19.00
2023-02-28T23:24:45.144Z,17.45
2023-02-28T23:27:14.163Z,15.20
2023-02-28T23:29:46.338Z,16.52
2023-02-28T23:32:39.318Z,18.25
2023-02-28T23:37:43.159Z,18.13
2023-02-28T23:40:14.837Z,15.27
2023-02-28T23:42:44.973Z,16.05
2023-02-28T23:45:15.053Z,15.07
2023-02-28T23:47:43.042Z,15.90
2023-02-28T23:50:12.122Z,14.18
2023-02-28T23:52:40.286Z,14.68
2023-02-28T23:55:08.962Z,20.90
2023-02-28T23:57:38.443Z,18.80
